createdAt,value
2019-01-06T00:01:49.375Z,99325.84
2019-01-06T00:04:40.382Z,99318.89
2019-01-06T00:07:29.099Z,99327.13
2019-01-06T00:10:14.079Z,99328.44
2019-01-06T00:13:20.374Z,99320.19
2019-01-06T00:16:05.898Z,99321.05
2019-01-06T00:18:50.813Z,99317.59
2019-01-06T00:21:43.242Z,99320.19
2019-01-06T00:24:46.440Z,99331.48
2019-01-06T00:27:29.786Z,99328.00
2019-01-06T00:30:11.006Z,99331.94
2019-01-06T00:32:57.723Z,99329.32
2019-01-06T00:36:02.537Z,99328.06
2019-01-06T00:38:43.779Z,99338.44
2019-01-06T00:41:27.930Z,99339.75
2019-01-06T00:44:34.085Z,99342.78
2019-01-06T00:47:19.219Z,99341.05
2019-01-06T00:50:06.143Z,99349.78
2019-01-06T00:52:59.918Z,99347.18
2019-01-06T00:55:46.414Z,99341.48
2019-01-06T00:58:37.365Z,99346.69
2019-01-06T01:01:23.769Z,99343.63
2019-01-06T01:04:09.519Z,99356.69
2019-01-06T01:06:51.244Z,99351.91
2019-01-06T01:09:53.090Z,99350.59
2019-01-06T01:12:37.613Z,99347.98
2019-01-06T01:15:24.739Z,99354.95
2019-01-06T01:18:18.511Z,99358.41
2019-01-06T01:21:06.011Z,99361.89
2019-01-06T01:23:52.758Z,99363.55
2019-01-06T01:26:37.426Z,99362.68
2019-01-06T01:29:24.193Z,99364.84
2019-01-06T01:32:15.843Z,99362.25
2019-01-06T01:35:03.680Z,99369.69
2019-01-06T01:37:49.902Z,99370.98
2019-01-06T01:40:36.943Z,99368.77
2019-01-06T01:43:27.844Z,99370.07
2019-01-06T01:46:14.348Z,99371.79
2019-01-06T01:49:01.202Z,99380.91
2019-01-06T01:51:58.041Z,99377.44
2019-01-06T01:54:57.753Z,99382.64
2019-01-06T01:58:03.904Z,99383.08
2019-01-06T02:00:50.597Z,99377.88
2019-01-06T02:03:39.670Z,99375.67
2019-01-06T02:06:26.101Z,99384.36
2019-01-06T02:09:32.301Z,99380.83
2019-01-06T02:12:18.577Z,99382.14
2019-01-06T02:15:15.208Z,99381.28
2019-01-06T02:18:15.110Z,99386.48
2019-01-06T02:20:56.674Z,99385.19
2019-01-06T02:24:02.895Z,99384.30
2019-01-06T02:26:49.718Z,99382.14
2019-01-06T02:29:36.457Z,99390.87
2019-01-06T02:32:26.122Z,99382.58
2019-01-06T02:35:22.813Z,99391.76
2019-01-06T02:38:22.865Z,99395.61
2019-01-06T02:41:22.258Z,99392.56
2019-01-06T02:44:19.223Z,99390.38
2019-01-06T02:47:05.641Z,99397.25
2019-01-06T02:49:52.343Z,99394.50
2019-01-06T02:52:49.346Z,99395.60
2019-01-06T02:55:36.513Z,99397.64
2019-01-06T02:58:21.769Z,99387.55
2019-01-06T03:01:02.176Z,99396.09
2019-01-06T03:04:05.386Z,99396.86
2019-01-06T03:07:05.312Z,99398.94
2019-01-06T03:10:06.206Z,99391.95
2019-01-06T03:12:52.502Z,99393.18
2019-01-06T03:15:32.347Z,99390.98
2019-01-06T03:18:25.762Z,99393.58
2019-01-06T03:21:19.510Z,99390.95
2019-01-06T03:24:20.413Z,99384.83
2019-01-06T03:27:11.312Z,99390.45
2019-01-06T03:29:57.794Z,99385.23
2019-01-06T03:32:40.918Z,99389.98
2019-01-06T03:35:31.657Z,99389.98
2019-01-06T03:38:18.084Z,99390.81
2019-01-06T03:41:18.007Z,99391.62
2019-01-06T03:44:05.971Z,99391.64
2019-01-06T03:46:53.862Z,99398.63
2019-01-06T03:49:41.672Z,99399.37
2019-01-06T03:52:34.174Z,99395.04
2019-01-06T03:55:23.144Z,99397.19
2019-01-06T03:58:10.042Z,99398.94
2019-01-06T04:01:13.208Z,99401.90
2019-01-06T04:04:02.640Z,99400.17
2019-01-06T04:06:44.862Z,99398.44
2019-01-06T04:09:31.547Z,99409.72
2019-01-06T04:12:33.563Z,99416.62
2019-01-06T04:15:17.023Z,99416.42
2019-01-06T04:18:02.256Z,99412.88
2019-01-06T04:20:48.860Z,99422.81
2019-01-06T04:23:36.767Z,99418.91
2019-01-06T04:26:33.406Z,99423.45
2019-01-06T04:29:14.719Z,99423.45
2019-01-06T04:32:08.486Z,99423.01
2019-01-06T04:35:02.100Z,99426.39
2019-01-06T04:37:58.950Z,99426.77
2019-01-06T04:41:02.065Z,99428.06
2019-01-06T04:43:58.790Z,99427.98
2019-01-06T04:46:56.383Z,99429.72
2019-01-06T04:49:56.473Z,99429.67
2019-01-06T04:52:41.126Z,99439.59
2019-01-06T04:55:26.468Z,99428.80
2019-01-06T04:58:14.235Z,99430.95
2019-01-06T05:01:01.951Z,99434.83
2019-01-06T05:03:49.598Z,99443.95
2019-01-06T05:06:45.857Z,99440.12
2019-01-06T05:09:49.836Z,99443.97
2019-01-06T05:12:40.730Z,99440.02
2019-01-06T05:15:39.430Z,99446.08
2019-01-06T05:18:30.271Z,99449.50
2019-01-06T05:21:36.147Z,99450.35
2019-01-06T05:24:50.434Z,99448.12
2019-01-06T05:27:37.141Z,99451.08
2019-01-06T05:30:40.065Z,99452.83
2019-01-06T05:33:27.816Z,99457.15
2019-01-06T05:36:14.598Z,99458.00
2019-01-06T05:39:20.587Z,99458.00
2019-01-06T05:42:17.274Z,99461.34
2019-01-06T05:45:07.798Z,99461.74
2019-01-06T05:47:58.481Z,99463.05
2019-01-06T05:50:44.936Z,99464.70
2019-01-06T05:53:34.823Z,99464.77
2019-01-06T05:56:19.613Z,99469.91
2019-01-06T05:59:25.834Z,99473.80
2019-01-06T06:02:13.645Z,99481.10
2019-01-06T06:05:07.480Z,99485.84
2019-01-06T06:07:54.105Z,99493.11
2019-01-06T06:10:43.530Z,99493.56
2019-01-06T06:13:46.471Z,99497.35
2019-01-06T06:16:37.312Z,99502.44
2019-01-06T06:19:17.280Z,99503.66
2019-01-06T06:22:17.129Z,99497.02
2019-01-06T06:25:07.975Z,99500.52
2019-01-06T06:27:49.838Z,99507.02
2019-01-06T06:30:37.683Z,99502.66
2019-01-06T06:33:37.728Z,99509.09
2019-01-06T06:36:37.398Z,99512.09
2019-01-06T06:39:19.092Z,99522.48
2019-01-06T06:42:05.545Z,99523.39
2019-01-06T06:44:52.257Z,99535.59
2019-01-06T06:47:38.657Z,99531.23
2019-01-06T06:50:28.541Z,99539.48
2019-01-06T06:53:12.901Z,99542.08
2019-01-06T06:55:57.993Z,99540.63
2019-01-06T06:58:58.020Z,99546.61
2019-01-06T07:02:28.434Z,99546.19
2019-01-06T07:05:18.785Z,99545.29
2019-01-06T07:08:18.963Z,99552.11
2019-01-06T07:11:00.081Z,99555.98
2019-01-06T07:14:06.326Z,99554.70
2019-01-06T07:17:35.299Z,99564.70
2019-01-06T07:20:26.709Z,99565.19
2019-01-06T07:23:11.159Z,99580.38
2019-01-06T07:26:02.059Z,99579.08
2019-01-06T07:32:01.604Z,99591.25
2019-01-06T07:34:57.221Z,99605.51
2019-01-06T07:37:42.934Z,99603.30
2019-01-06T07:40:29.735Z,99604.20
2019-01-06T07:43:26.882Z,99605.05
2019-01-06T07:46:22.603Z,99607.56
2019-01-06T07:49:10.646Z,99606.17
2019-01-06T07:51:57.556Z,99612.63
2019-01-06T07:54:46.331Z,99611.63
2019-01-06T07:57:32.794Z,99612.92
2019-01-06T08:00:23.920Z,99615.03
2019-01-06T08:03:24.079Z,99618.05
2019-01-06T08:06:10.914Z,99622.79
2019-01-06T08:08:58.307Z,99627.59
2019-01-06T08:12:03.541Z,99631.09
2019-01-06T08:14:49.874Z,99636.42
2019-01-06T08:17:39.554Z,99639.99
2019-01-06T08:20:26.034Z,99647.91
2019-01-06T08:23:23.283Z,99644.08
2019-01-06T08:26:16.328Z,99648.98
2019-01-06T08:29:16.300Z,99649.50
2019-01-06T08:32:10.106Z,99651.25
2019-01-06T08:35:10.536Z,99657.81
2019-01-06T08:38:04.672Z,99658.23
2019-01-06T08:41:04.412Z,99667.39
2019-01-06T08:43:52.417Z,99663.55
2019-01-06T08:46:41.018Z,99667.90
2019-01-06T08:49:31.306Z,99672.28
2019-01-06T08:52:17.772Z,99678.00
2019-01-06T08:55:04.687Z,99674.09
2019-01-06T08:57:51.310Z,99673.28
2019-01-06T09:00:33.677Z,99662.89
2019-01-06T09:03:24.520Z,99673.80
2019-01-06T09:06:21.716Z,99666.45
2019-01-06T09:09:12.078Z,99669.15
2019-01-06T09:12:00.801Z,99666.61
2019-01-06T09:14:58.154Z,99667.48
2019-01-06T09:17:44.636Z,99664.83
2019-01-06T09:20:41.980Z,99670.36
2019-01-06T09:23:29.958Z,99668.66
2019-01-06T09:26:23.750Z,99667.84
2019-01-06T09:29:10.130Z,99665.31
2019-01-06T09:32:04.031Z,99664.07
2019-01-06T09:34:50.915Z,99661.56
2019-01-06T09:37:53.997Z,99662.98
2019-01-06T09:40:40.742Z,99660.86
2019-01-06T09:43:44.165Z,99669.17
2019-01-06T09:46:31.017Z,99670.59
2019-01-06T09:49:17.866Z,99671.13
2019-01-06T09:52:04.804Z,99673.28
2019-01-06T09:54:55.529Z,99675.94
2019-01-06T09:57:58.719Z,99671.73
2019-01-06T10:00:46.583Z,99674.84
2019-01-06T10:03:46.839Z,99671.91
2019-01-06T10:06:33.206Z,99675.38
2019-01-06T10:09:33.913Z,99667.03
2019-01-06T10:12:21.914Z,99667.13
2019-01-06T10:15:12.810Z,99671.03
2019-01-06T10:18:00.502Z,99665.05
2019-01-06T10:20:48.112Z,99670.38
2019-01-06T10:23:28.059Z,99669.97
2019-01-06T10:26:11.741Z,99666.92
2019-01-06T10:29:12.121Z,99666.87
2019-01-06T10:32:00.224Z,99672.13
2019-01-06T10:34:57.844Z,99668.33
2019-01-06T10:37:49.040Z,99673.48
2019-01-06T10:40:28.273Z,99667.45
2019-01-06T10:43:10.091Z,99664.09
2019-01-06T10:46:06.040Z,99660.16
2019-01-06T10:48:57.458Z,99666.23
2019-01-06T10:51:57.621Z,99660.19
2019-01-06T10:54:54.955Z,99658.35
2019-01-06T10:57:47.708Z,99663.55
2019-01-06T11:00:38.497Z,99658.74
2019-01-06T11:03:29.362Z,99660.11
2019-01-06T11:06:17.499Z,99661.14
2019-01-06T11:09:14.525Z,99664.64
2019-01-06T11:12:11.022Z,99664.20
2019-01-06T11:14:57.915Z,99668.09
2019-01-06T11:17:54.823Z,99668.15
2019-01-06T11:20:41.700Z,99677.70
2019-01-06T11:23:28.339Z,99678.91
2019-01-06T11:26:15.450Z,99678.50
2019-01-06T11:29:02.277Z,99677.20
2019-01-06T11:32:08.346Z,99677.55
2019-01-06T11:34:59.518Z,99678.39
2019-01-06T11:37:46.404Z,99673.54
2019-01-06T11:40:37.589Z,99669.20
2019-01-06T11:43:25.587Z,99664.38
2019-01-06T11:46:25.639Z,99666.61
2019-01-06T11:49:19.841Z,99665.76
2019-01-06T11:52:06.296Z,99666.16
2019-01-06T11:55:08.311Z,99657.77
2019-01-06T11:57:55.227Z,99660.02
2019-01-06T12:00:44.174Z,99656.55
2019-01-06T12:03:44.176Z,99654.45
2019-01-06T12:06:40.821Z,99651.34
2019-01-06T12:09:22.838Z,99654.71
2019-01-06T12:12:03.150Z,99652.05
2019-01-06T12:15:03.944Z,99646.34
2019-01-06T12:17:51.067Z,99651.57
2019-01-06T12:20:42.355Z,99649.52
2019-01-06T12:23:33.356Z,99648.71
2019-01-06T12:26:22.671Z,99653.55
2019-01-06T12:29:09.531Z,99642.75
2019-01-06T12:31:56.487Z,99645.84
2019-01-06T12:34:43.200Z,99642.00
2019-01-06T12:37:23.098Z,99649.03
2019-01-06T12:40:20.109Z,99650.34
2019-01-06T12:43:11.210Z,99650.84
2019-01-06T12:46:06.840Z,99650.39
2019-01-06T12:48:53.687Z,99652.52
2019-01-06T12:51:46.739Z,99651.64
2019-01-06T12:54:33.493Z,99646.44
2019-01-06T12:57:21.562Z,99640.38
2019-01-06T13:00:14.801Z,99649.91
2019-01-06T13:03:05.831Z,99645.58
2019-01-06T13:06:09.133Z,99641.68
2019-01-06T13:09:08.886Z,99643.83
2019-01-06T13:12:09.023Z,99648.14
2019-01-06T13:14:57.073Z,99646.03
2019-01-06T13:17:42.474Z,99652.54
2019-01-06T13:20:48.544Z,99653.77
2019-01-06T13:23:29.762Z,99654.23
2019-01-06T13:26:16.096Z,99649.46
2019-01-06T13:29:00.447Z,99654.23
2019-01-06T13:31:46.998Z,99655.11
2019-01-06T13:34:33.347Z,99656.84
2019-01-06T13:37:30.771Z,99663.39
2019-01-06T13:40:17.763Z,99665.15
2019-01-06T13:43:16.653Z,99665.70
2019-01-06T13:46:14.068Z,99664.88
2019-01-06T13:49:12.973Z,99677.12
2019-01-06T13:52:07.785Z,99676.33
2019-01-06T13:55:01.787Z,99663.39
2019-01-06T13:57:48.446Z,99668.94
2019-01-06T14:00:48.868Z,99661.66
2019-01-06T14:03:40.237Z,99664.25
2019-01-06T14:06:28.187Z,99671.22
2019-01-06T14:09:15.168Z,99664.30
2019-01-06T14:11:59.426Z,99669.95
2019-01-06T14:14:49.159Z,99670.78
2019-01-06T14:17:46.368Z,99671.12
2019-01-06T14:20:46.361Z,99686.73
2019-01-06T14:23:34.367Z,99675.45
2019-01-06T14:26:25.818Z,99684.09
2019-01-06T14:29:12.794Z,99687.09
2019-01-06T14:31:59.634Z,99687.94
2019-01-06T14:34:42.901Z,99687.48
2019-01-06T14:37:29.663Z,99690.09
2019-01-06T14:40:22.922Z,99690.09
2019-01-06T14:43:16.936Z,99694.45
2019-01-06T14:46:00.134Z,99696.98
2019-01-06T14:48:46.889Z,99696.51
2019-01-06T14:54:40.396Z,99692.95
2019-01-06T14:57:27.941Z,99700.41
2019-01-06T15:00:25.506Z,99699.98
2019-01-06T15:03:15.205Z,99696.51
2019-01-06T15:06:01.844Z,99696.96
2019-01-06T15:08:49.900Z,99706.92
2019-01-06T15:11:49.607Z,99706.47
2019-01-06T15:14:36.009Z,99699.53
2019-01-06T15:17:22.208Z,99703.41
2019-01-06T15:20:18.731Z,99696.88
2019-01-06T15:23:05.839Z,99698.21
2019-01-06T15:25:51.862Z,99699.06
2019-01-06T15:28:38.584Z,99698.77
2019-01-06T15:31:41.968Z,99699.30
2019-01-06T15:34:33.485Z,99699.38
2019-01-06T15:37:13.157Z,99696.37
2019-01-06T15:40:01.270Z,99706.87
2019-01-06T15:42:49.109Z,99707.72
2019-01-06T15:45:39.779Z,99706.05
2019-01-06T15:48:33.510Z,99703.87
2019-01-06T15:51:20.373Z,99703.47
2019-01-06T15:54:07.112Z,99696.59
2019-01-06T15:57:03.791Z,99705.27
2019-01-06T15:59:49.998Z,99703.52
2019-01-06T16:02:49.491Z,99698.31
2019-01-06T16:05:40.145Z,99703.50
2019-01-06T16:08:33.931Z,99717.41
2019-01-06T16:11:20.638Z,99720.52
2019-01-06T16:14:07.323Z,99713.61
2019-01-06T16:17:07.506Z,99718.83
2019-01-06T16:19:52.967Z,99716.64
2019-01-06T16:22:44.587Z,99725.33
2019-01-06T16:25:44.510Z,99721.50
2019-01-06T16:28:23.304Z,99727.58
2019-01-06T16:31:24.169Z,99728.44
2019-01-06T16:34:14.977Z,99728.94
2019-01-06T16:37:01.785Z,99733.33
2019-01-06T16:39:55.902Z,99736.83
2019-01-06T16:42:49.982Z,99729.13
2019-01-06T16:45:37.789Z,99726.54
2019-01-06T16:48:24.655Z,99727.44
2019-01-06T16:51:24.438Z,99731.34
2019-01-06T16:54:10.900Z,99725.71
2019-01-06T16:56:54.310Z,99724.41
2019-01-06T16:59:41.026Z,99727.52
2019-01-06T17:02:29.046Z,99721.38
2019-01-06T17:05:22.634Z,99728.39
2019-01-06T17:08:15.498Z,99727.12
2019-01-06T17:11:01.709Z,99720.52
2019-01-06T17:13:52.667Z,99720.95
2019-01-06T17:16:33.915Z,99728.42
2019-01-06T17:19:20.694Z,99718.90
2019-01-06T17:22:12.722Z,99727.56
2019-01-06T17:25:07.874Z,99732.78
2019-01-06T17:27:54.664Z,99736.69
2019-01-06T17:30:44.282Z,99730.72
2019-01-06T17:33:24.807Z,99730.30
2019-01-06T17:36:14.274Z,99729.37
2019-01-06T17:38:59.191Z,99725.03
2019-01-06T17:41:46.005Z,99725.13
2019-01-06T17:44:32.457Z,99727.73
2019-01-06T17:47:19.760Z,99730.34
2019-01-06T17:50:10.961Z,99722.08
2019-01-06T17:53:08.124Z,99732.17
2019-01-06T17:56:04.638Z,99734.80
2019-01-06T17:58:52.485Z,99733.47
2019-01-06T18:01:55.349Z,99739.16
2019-01-06T18:04:37.132Z,99736.10
2019-01-06T18:07:23.635Z,99737.83
2019-01-06T18:10:10.684Z,99735.25
2019-01-06T18:13:08.000Z,99737.38
2019-01-06T18:15:54.828Z,99742.19
2019-01-06T18:18:48.787Z,99737.43
2019-01-06T18:21:48.739Z,99741.34
2019-01-06T18:24:42.505Z,99742.34
2019-01-06T18:27:25.667Z,99738.52
2019-01-06T18:30:24.501Z,99735.98
2019-01-06T18:33:31.162Z,99738.61
2019-01-06T18:36:19.304Z,99739.51
2019-01-06T18:39:16.072Z,99736.45
2019-01-06T18:42:02.646Z,99734.37
2019-01-06T18:45:09.034Z,99740.02
2019-01-06T18:47:44.161Z,99734.74
2019-01-06T18:50:32.002Z,99740.81
2019-01-06T18:53:29.261Z,99738.71
2019-01-06T18:56:20.438Z,99737.83
2019-01-06T18:59:13.259Z,99741.34
2019-01-06T19:02:01.505Z,99741.74
2019-01-06T19:04:44.677Z,99734.30
2019-01-06T19:07:23.771Z,99736.03
2019-01-06T19:10:11.270Z,99735.16
2019-01-06T19:13:08.473Z,99736.86
2019-01-06T19:15:55.267Z,99743.40
2019-01-06T19:18:53.062Z,99742.05
2019-01-06T19:21:39.403Z,99737.31
2019-01-06T19:24:34.356Z,99740.79
2019-01-06T19:27:22.270Z,99732.09
2019-01-06T19:30:14.645Z,99745.11
2019-01-06T19:32:58.116Z,99739.48
2019-01-06T19:35:47.063Z,99741.63
2019-01-06T19:38:42.782Z,99743.36
2019-01-06T19:41:50.951Z,99740.30
2019-01-06T19:45:06.663Z,99736.39
2019-01-06T19:48:12.333Z,99735.97
2019-01-06T19:51:04.082Z,99739.02
2019-01-06T19:53:59.533Z,99743.78
2019-01-06T19:56:54.988Z,99742.91
2019-01-06T19:59:45.219Z,99748.04
2019-01-06T20:02:42.991Z,99746.76
2019-01-06T20:05:43.840Z,99743.21
2019-01-06T20:08:34.175Z,99740.16
2019-01-06T20:11:21.821Z,99739.23
2019-01-06T20:14:09.714Z,99744.01
2019-01-06T20:16:56.059Z,99738.34
2019-01-06T20:19:43.021Z,99748.75
2019-01-06T20:22:26.814Z,99743.97
2019-01-06T20:25:08.291Z,99750.50
2019-01-06T20:27:58.197Z,99751.28
2019-01-06T20:30:49.416Z,99755.62
2019-01-06T20:34:16.942Z,99762.59
2019-01-06T20:37:19.984Z,99761.70
2019-01-06T20:40:06.708Z,99756.42
2019-01-06T20:43:00.396Z,99757.30
2019-01-06T20:45:47.252Z,99757.72
2019-01-06T20:48:33.919Z,99765.09
2019-01-06T20:51:28.115Z,99767.24
2019-01-06T20:54:34.600Z,99760.75
2019-01-06T20:57:21.806Z,99760.77
2019-01-06T21:00:18.050Z,99763.36
2019-01-06T21:02:59.834Z,99758.55
2019-01-06T21:05:47.718Z,99761.61
2019-01-06T21:08:31.999Z,99756.39
2019-01-06T21:11:16.424Z,99756.80
2019-01-06T21:14:03.136Z,99763.31
2019-01-06T21:17:06.014Z,99770.72
2019-01-06T21:19:58.661Z,99769.80
2019-01-06T21:22:47.539Z,99770.22
2019-01-06T21:25:38.136Z,99775.80
2019-01-06T21:28:23.302Z,99777.08
2019-01-06T21:31:09.632Z,99774.45
2019-01-06T21:33:55.405Z,99776.16
2019-01-06T21:36:50.017Z,99772.67
2019-01-06T21:39:47.540Z,99776.16
2019-01-06T21:42:36.144Z,99773.58
2019-01-06T21:45:23.750Z,99776.61
2019-01-06T21:48:27.086Z,99782.27
2019-01-06T21:51:18.790Z,99783.16
2019-01-06T21:54:25.647Z,99775.80
2019-01-06T21:57:25.924Z,99772.77
2019-01-06T22:00:23.570Z,99782.84
2019-01-06T22:03:10.592Z,99775.38
2019-01-06T22:05:55.090Z,99776.66
2019-01-06T22:09:01.780Z,99773.20
2019-01-06T22:11:49.761Z,99775.83
2019-01-06T22:14:40.717Z,99774.52
2019-01-06T22:17:30.214Z,99771.53
2019-01-06T22:20:22.636Z,99774.13
2019-01-06T22:23:09.764Z,99773.20
2019-01-06T22:26:00.709Z,99770.62
2019-01-06T22:29:05.210Z,99773.28
2019-01-06T22:31:59.462Z,99771.13
2019-01-06T22:34:46.957Z,99765.47
2019-01-06T22:37:50.641Z,99768.92
2019-01-06T22:40:33.405Z,99766.77
2019-01-06T22:43:30.314Z,99775.88
2019-01-06T22:46:16.675Z,99776.76
2019-01-06T22:49:03.384Z,99767.63
2019-01-06T22:52:09.105Z,99771.98
2019-01-06T22:55:06.311Z,99769.38
2019-01-06T22:58:12.134Z,99776.31
2019-01-06T23:00:53.932Z,99776.31
2019-01-06T23:03:40.824Z,99771.98
2019-01-06T23:06:21.006Z,99774.13
2019-01-06T23:09:02.737Z,99771.47
2019-01-06T23:12:02.472Z,99768.44
2019-01-06T23:14:59.552Z,99768.44
2019-01-06T23:17:43.159Z,99776.62
2019-01-06T23:20:33.991Z,99772.25
2019-01-06T23:23:20.653Z,99771.84
2019-01-06T23:26:13.166Z,99766.16
2019-01-06T23:28:59.775Z,99771.80
2019-01-06T23:31:50.883Z,99778.31
2019-01-06T23:34:37.393Z,99779.55
2019-01-06T23:37:23.616Z,99780.43
2019-01-06T23:40:05.594Z,99783.52
2019-01-06T23:42:50.593Z,99790.83
2019-01-06T23:45:56.841Z,99787.34
2019-01-06T23:48:46.052Z,99789.92
2019-01-06T23:51:43.059Z,99781.69
2019-01-06T23:54:28.199Z,99794.76
2019-01-06T23:57:25.451Z,99790.80
